createdAt,value
2019-03-31T00:00:04.887Z,1007.85
2019-03-31T00:01:08.472Z,1007.82
2019-03-31T00:02:04.827Z,1007.84
2019-03-31T00:03:04.839Z,1007.82
2019-03-31T00:04:04.906Z,1007.80
2019-03-31T00:05:04.843Z,1007.80
2019-03-31T00:06:04.856Z,1007.84
2019-03-31T00:07:04.825Z,1007.81
2019-03-31T00:08:04.783Z,1007.81
2019-03-31T00:09:04.780Z,1007.83
2019-03-31T00:10:04.783Z,1007.81
2019-03-31T00:11:04.826Z,1007.81
2019-03-31T00:12:04.817Z,1007.81
2019-03-31T00:13:04.772Z,1007.77
2019-03-31T00:14:04.768Z,1007.81
2019-03-31T00:15:04.756Z,1007.81
2019-03-31T00:16:04.771Z,1007.81
2019-03-31T00:17:04.731Z,1007.79
2019-03-31T00:18:04.776Z,1007.76
2019-03-31T00:19:04.746Z,1007.76
2019-03-31T00:20:04.707Z,1007.76
2019-03-31T00:21:04.703Z,1007.75
2019-03-31T00:22:04.749Z,1007.73
2019-03-31T00:23:04.705Z,1007.77
2019-03-31T00:24:04.733Z,1007.74
2019-03-31T00:25:04.674Z,1007.77
2019-03-31T00:26:04.675Z,1007.75
2019-03-31T00:27:04.697Z,1007.76
2019-03-31T00:28:04.678Z,1007.76
2019-03-31T00:29:04.653Z,1007.77
2019-03-31T00:30:04.675Z,1007.78
2019-03-31T00:31:04.676Z,1007.77
2019-03-31T00:32:04.636Z,1007.74
2019-03-31T00:33:04.620Z,1007.84
2019-03-31T00:34:04.650Z,1007.78
2019-03-31T00:35:04.605Z,1007.79
2019-03-31T00:36:04.616Z,1007.76
2019-03-31T00:37:07.538Z,1007.78
2019-03-31T00:38:04.601Z,1007.80
2019-03-31T00:39:04.580Z,1007.81
2019-03-31T00:40:04.588Z,1007.79
2019-03-31T00:41:04.589Z,1007.79
2019-03-31T00:42:04.564Z,1007.80
2019-03-31T00:43:04.564Z,1007.78
2019-03-31T00:44:04.562Z,1007.75
2019-03-31T00:45:04.556Z,1007.82
2019-03-31T00:46:04.542Z,1007.79
2019-03-31T00:47:04.589Z,1007.79
2019-03-31T00:48:04.523Z,1007.80
2019-03-31T00:49:04.522Z,1007.76
2019-03-31T00:50:04.543Z,1007.76
2019-03-31T00:51:04.530Z,1007.76
2019-03-31T00:52:04.496Z,1007.77
2019-03-31T00:53:04.496Z,1007.77
2019-03-31T00:54:04.516Z,1007.76
2019-03-31T00:55:04.497Z,1007.74
2019-03-31T00:56:04.477Z,1007.75
2019-03-31T00:57:04.491Z,1007.75
2019-03-31T00:58:04.459Z,1007.75
2019-03-31T00:59:04.446Z,1007.77
2019-03-31T01:00:04.442Z,1007.74
2019-03-31T01:01:04.441Z,1007.77
2019-03-31T01:02:04.434Z,1007.76
2019-03-31T01:03:04.529Z,1007.77
2019-03-31T01:04:04.429Z,1007.78
2019-03-31T01:05:04.502Z,1007.73
2019-03-31T01:06:04.412Z,1007.77
2019-03-31T01:07:04.399Z,1007.76
2019-03-31T01:08:04.398Z,1007.75
2019-03-31T01:09:04.419Z,1007.74
2019-03-31T01:10:04.381Z,1007.74
2019-03-31T01:11:04.427Z,1007.72
2019-03-31T01:12:04.377Z,1007.70
2019-03-31T01:13:04.389Z,1007.73
2019-03-31T01:14:04.350Z,1007.71
2019-03-31T01:15:04.348Z,1007.72
2019-03-31T01:16:04.378Z,1007.68
2019-03-31T01:17:04.331Z,1007.67
2019-03-31T01:18:04.339Z,1007.64
2019-03-31T01:19:04.356Z,1007.64
2019-03-31T01:20:04.310Z,1007.64
2019-03-31T01:21:04.348Z,1007.65
2019-03-31T01:22:04.329Z,1007.65
2019-03-31T01:23:04.302Z,1007.67
2019-03-31T01:24:04.286Z,1007.65
2019-03-31T01:25:04.276Z,1007.68
2019-03-31T01:26:04.280Z,1007.64
2019-03-31T01:27:04.279Z,1007.64
2019-03-31T01:28:04.335Z,1007.66
2019-03-31T01:29:04.249Z,1007.67
2019-03-31T01:30:04.269Z,1007.64
2019-03-31T01:31:04.259Z,1007.66
2019-03-31T01:32:04.276Z,1007.68
2019-03-31T01:33:04.252Z,1007.67
2019-03-31T01:34:04.211Z,1007.67
2019-03-31T01:35:04.217Z,1007.71
2019-03-31T01:36:04.206Z,1007.66
2019-03-31T01:37:04.191Z,1007.67
2019-03-31T01:38:04.235Z,1007.65
2019-03-31T01:39:04.176Z,1007.70
2019-03-31T01:40:04.206Z,1007.64
2019-03-31T01:41:04.168Z,1007.65
2019-03-31T01:42:04.186Z,1007.66
2019-03-31T01:43:04.157Z,1007.71
2019-03-31T01:44:04.172Z,1007.66
2019-03-31T01:45:04.148Z,1007.66
2019-03-31T01:46:04.136Z,1007.66
2019-03-31T01:47:04.125Z,1007.65
2019-03-31T01:48:04.122Z,1007.67
2019-03-31T01:49:04.150Z,1007.63
2019-03-31T01:50:04.136Z,1007.66
2019-03-31T01:51:04.095Z,1007.67
2019-03-31T01:52:04.090Z,1007.69
2019-03-31T01:53:04.104Z,1007.67
2019-03-31T01:54:04.109Z,1007.71
2019-03-31T01:55:04.092Z,1007.73
2019-03-31T01:56:04.061Z,1007.74
2019-03-31T01:57:04.064Z,1007.74
2019-03-31T01:58:04.043Z,1007.75
2019-03-31T01:59:04.074Z,1007.74
2019-03-31T02:00:04.082Z,1007.74
2019-03-31T02:01:04.055Z,1007.74
2019-03-31T02:02:04.844Z,1007.72
2019-03-31T02:03:04.012Z,1007.72
2019-03-31T02:04:04.028Z,1007.78
2019-03-31T02:05:03.992Z,1007.78
2019-03-31T02:06:03.999Z,1007.79
2019-03-31T02:07:03.977Z,1007.80
2019-03-31T02:08:03.973Z,1007.77
2019-03-31T02:09:03.977Z,1007.78
2019-03-31T02:10:03.970Z,1007.77
2019-03-31T02:11:03.962Z,1007.78
2019-03-31T02:12:03.944Z,1007.78
2019-03-31T02:13:03.938Z,1007.75
2019-03-31T02:14:03.960Z,1007.80
2019-03-31T02:15:03.929Z,1007.78
2019-03-31T02:16:03.914Z,1007.75
2019-03-31T02:17:03.949Z,1007.80
2019-03-31T02:18:03.902Z,1007.73
2019-03-31T02:19:03.895Z,1007.76
2019-03-31T02:20:03.888Z,1007.74
2019-03-31T02:21:03.877Z,1007.70
2019-03-31T02:22:03.866Z,1007.74
2019-03-31T02:23:03.861Z,1007.73
2019-03-31T02:24:03.855Z,1007.73
2019-03-31T02:25:03.855Z,1007.71
2019-03-31T02:26:03.840Z,1007.74
2019-03-31T02:27:03.833Z,1007.71
2019-03-31T02:28:03.834Z,1007.68
2019-03-31T02:29:03.830Z,1007.69
2019-03-31T02:30:03.814Z,1007.70
2019-03-31T02:31:03.813Z,1007.71
2019-03-31T02:32:22.159Z,1007.70
2019-03-31T02:33:03.795Z,1007.72
2019-03-31T02:34:03.780Z,1007.66
2019-03-31T02:35:03.768Z,1007.68
2019-03-31T02:36:03.765Z,1007.65
2019-03-31T02:37:03.751Z,1007.68
2019-03-31T02:38:03.746Z,1007.66
2019-03-31T02:39:03.743Z,1007.67
2019-03-31T02:40:03.743Z,1007.68
2019-03-31T02:41:03.751Z,1007.67
2019-03-31T02:42:03.723Z,1007.67
2019-03-31T02:43:03.722Z,1007.68
2019-03-31T02:44:03.697Z,1007.71
2019-03-31T02:45:03.695Z,1007.68
2019-03-31T02:46:03.824Z,1007.73
2019-03-31T02:47:03.680Z,1007.74
2019-03-31T02:48:03.680Z,1007.74
2019-03-31T02:49:03.671Z,1007.73
2019-03-31T02:50:03.684Z,1007.74
2019-03-31T02:51:03.653Z,1007.75
2019-03-31T02:52:03.671Z,1007.76
2019-03-31T02:53:03.660Z,1007.74
2019-03-31T02:54:03.635Z,1007.70
2019-03-31T02:55:03.648Z,1007.72
2019-03-31T02:56:03.613Z,1007.74
2019-03-31T03:13:53.003Z,1007.71
2019-03-31T03:14:53.055Z,1007.77
2019-03-31T03:15:52.947Z,1007.75
2019-03-31T03:16:52.971Z,1007.77
2019-03-31T03:17:52.944Z,1007.76
2019-03-31T03:18:52.903Z,1007.76
2019-03-31T03:19:52.927Z,1007.74
2019-03-31T03:20:52.920Z,1007.76
2019-03-31T03:21:52.901Z,1007.73
2019-03-31T03:22:52.930Z,1007.75
2019-03-31T03:23:52.860Z,1007.70
2019-03-31T03:24:52.889Z,1007.69
2019-03-31T03:25:56.184Z,1007.66
2019-03-31T03:26:52.832Z,1007.68
2019-03-31T03:27:52.823Z,1007.65
2019-03-31T03:28:52.865Z,1007.67
2019-03-31T03:29:52.820Z,1007.67
2019-03-31T03:30:52.930Z,1007.64
2019-03-31T03:31:52.795Z,1007.68
2019-03-31T03:33:13.277Z,1007.65
2019-03-31T03:33:52.766Z,1007.66
2019-03-31T03:34:52.769Z,1007.61
2019-03-31T03:35:52.755Z,1007.65
2019-03-31T03:36:52.738Z,1007.64
2019-03-31T03:37:52.748Z,1007.64
2019-03-31T03:38:52.746Z,1007.59
2019-03-31T03:39:52.741Z,1007.61
2019-03-31T03:40:52.708Z,1007.62
2019-03-31T03:41:52.712Z,1007.61
2019-03-31T03:42:52.690Z,1007.58
2019-03-31T03:43:56.333Z,1007.64
2019-03-31T03:44:52.677Z,1007.59
2019-03-31T03:45:52.687Z,1007.61
2019-03-31T03:46:52.664Z,1007.63
2019-03-31T03:47:52.671Z,1007.62
2019-03-31T03:48:52.662Z,1007.63
2019-03-31T03:49:52.635Z,1007.60
2019-03-31T03:50:52.629Z,1007.64
2019-03-31T03:51:52.624Z,1007.60
2019-03-31T03:52:52.606Z,1007.65
2019-03-31T03:53:52.597Z,1007.64
2019-03-31T03:54:52.672Z,1007.65
2019-03-31T03:55:52.594Z,1007.60
2019-03-31T03:56:52.572Z,1007.62
2019-03-31T03:57:52.569Z,1007.62
2019-03-31T03:58:52.589Z,1007.59
2019-03-31T03:59:52.558Z,1007.56
2019-03-31T04:00:52.549Z,1007.58
2019-03-31T04:01:52.538Z,1007.59
2019-03-31T04:02:52.525Z,1007.58
2019-03-31T04:03:52.517Z,1007.61
2019-03-31T04:04:52.511Z,1007.60
2019-03-31T04:05:52.513Z,1007.56
2019-03-31T04:06:52.499Z,1007.56
2019-03-31T04:07:52.480Z,1007.56
2019-03-31T04:08:52.480Z,1007.58
2019-03-31T04:09:52.464Z,1007.55
2019-03-31T04:10:52.462Z,1007.54
2019-03-31T04:11:52.467Z,1007.56
2019-03-31T04:12:52.434Z,1007.53
2019-03-31T04:13:52.435Z,1007.53
2019-03-31T04:14:52.537Z,1007.56
2019-03-31T04:15:52.436Z,1007.57
2019-03-31T04:16:52.402Z,1007.52
2019-03-31T04:17:52.404Z,1007.57
2019-03-31T04:18:52.398Z,1007.53
2019-03-31T04:19:52.378Z,1007.51
2019-03-31T04:20:52.383Z,1007.55
2019-03-31T04:21:52.373Z,1007.54
2019-03-31T04:22:52.357Z,1007.52
2019-03-31T04:23:52.356Z,1007.57
2019-03-31T04:24:52.354Z,1007.52
2019-03-31T04:25:52.394Z,1007.60
2019-03-31T04:26:52.334Z,1007.59
2019-03-31T04:27:52.334Z,1007.58
2019-03-31T04:28:52.302Z,1007.60
2019-03-31T04:29:52.324Z,1007.58
2019-03-31T04:30:52.299Z,1007.55
2019-03-31T04:31:52.299Z,1007.56
2019-03-31T04:32:52.297Z,1007.59
2019-03-31T04:33:53.169Z,1007.59
2019-03-31T04:34:52.283Z,1007.53
2019-03-31T04:35:52.264Z,1007.58
2019-03-31T04:36:52.239Z,1007.58
2019-03-31T04:37:52.230Z,1007.55
2019-03-31T04:38:52.226Z,1007.55
2019-03-31T04:39:52.252Z,1007.52
2019-03-31T04:40:52.199Z,1007.52
2019-03-31T04:41:52.194Z,1007.55
2019-03-31T04:42:52.191Z,1007.53
2019-03-31T04:43:52.183Z,1007.57
2019-03-31T04:44:52.201Z,1007.52
2019-03-31T04:45:52.174Z,1007.56
2019-03-31T04:46:52.182Z,1007.58
2019-03-31T04:47:52.195Z,1007.56
2019-03-31T04:48:52.137Z,1007.58
2019-03-31T04:49:52.161Z,1007.59
2019-03-31T04:50:52.370Z,1007.60
2019-03-31T04:51:52.130Z,1007.63
2019-03-31T04:52:52.098Z,1007.62
2019-03-31T04:53:52.107Z,1007.61
2019-03-31T04:54:52.088Z,1007.60
2019-03-31T04:55:52.163Z,1007.62
2019-03-31T04:56:52.069Z,1007.59
2019-03-31T04:57:52.076Z,1007.61
2019-03-31T04:58:52.067Z,1007.62
2019-03-31T04:59:52.064Z,1007.63
2019-03-31T05:00:52.049Z,1007.62
2019-03-31T05:01:52.155Z,1007.64
2019-03-31T05:02:52.025Z,1007.64
2019-03-31T05:04:04.981Z,1007.61
2019-03-31T05:05:56.564Z,1007.63
2019-03-31T05:06:56.471Z,1007.68
2019-03-31T05:07:56.565Z,1007.67
2019-03-31T05:08:56.893Z,1007.66
2019-03-31T05:09:56.444Z,1007.68
2019-03-31T05:10:56.463Z,1007.67
2019-03-31T05:11:56.430Z,1007.67
2019-03-31T05:12:56.417Z,1007.68
2019-03-31T05:13:56.410Z,1007.64
2019-03-31T05:14:56.409Z,1007.66
2019-03-31T05:15:56.392Z,1007.63
2019-03-31T05:16:56.388Z,1007.65
2019-03-31T05:17:56.384Z,1007.67
2019-03-31T05:18:56.488Z,1007.70
2019-03-31T05:19:56.364Z,1007.67
2019-03-31T05:20:56.365Z,1007.66
2019-03-31T05:21:56.345Z,1007.68
2019-03-31T05:22:56.334Z,1007.67
2019-03-31T05:23:56.342Z,1007.63
2019-03-31T05:24:56.321Z,1007.67
2019-03-31T05:25:56.307Z,1007.73
2019-03-31T05:26:56.302Z,1007.69
2019-03-31T05:27:56.313Z,1007.72
2019-03-31T05:28:56.299Z,1007.66
2019-03-31T05:29:56.291Z,1007.68
2019-03-31T05:30:56.283Z,1007.72
2019-03-31T05:31:56.261Z,1007.70
2019-03-31T05:32:56.249Z,1007.71
2019-03-31T05:33:56.234Z,1007.67
2019-03-31T05:34:56.250Z,1007.74
2019-03-31T05:35:56.232Z,1007.70
2019-03-31T05:36:56.215Z,1007.71
2019-03-31T05:37:56.212Z,1007.73
2019-03-31T05:38:56.205Z,1007.74
2019-03-31T05:39:56.189Z,1007.75
2019-03-31T05:40:56.187Z,1007.75
2019-03-31T05:41:56.181Z,1007.75
2019-03-31T05:42:56.179Z,1007.77
2019-03-31T05:44:05.565Z,1007.79
2019-03-31T05:44:56.177Z,1007.80
2019-03-31T05:45:56.146Z,1007.82
2019-03-31T05:46:56.132Z,1007.85
2019-03-31T05:47:56.125Z,1007.83
2019-03-31T05:48:56.136Z,1007.85
2019-03-31T05:49:56.111Z,1007.87
2019-03-31T05:50:56.110Z,1007.90
2019-03-31T05:51:56.109Z,1007.91
2019-03-31T05:52:56.096Z,1007.93
2019-03-31T05:53:56.089Z,1007.91
2019-03-31T05:54:56.087Z,1007.97
2019-03-31T05:55:56.073Z,1007.97
2019-03-31T05:56:56.063Z,1008.01
2019-03-31T05:57:56.097Z,1008.00
2019-03-31T05:58:56.054Z,1008.01
2019-03-31T05:59:56.037Z,1008.03
2019-03-31T06:00:56.037Z,1007.98
2019-03-31T06:01:56.026Z,1008.02
2019-03-31T06:02:56.032Z,1008.02
2019-03-31T06:03:56.005Z,1008.03
2019-03-31T06:04:56.016Z,1008.04
2019-03-31T06:05:56.016Z,1008.05
2019-03-31T06:06:55.999Z,1008.00
2019-03-31T06:07:55.983Z,1008.00
2019-03-31T06:08:55.969Z,1007.98
2019-03-31T06:09:55.972Z,1007.96
2019-03-31T06:10:55.975Z,1007.99
2019-03-31T06:11:55.957Z,1007.97
2019-03-31T06:12:55.951Z,1008.00
2019-03-31T06:13:55.952Z,1007.95
2019-03-31T06:14:55.933Z,1008.00
2019-03-31T06:15:55.920Z,1007.97
2019-03-31T06:16:55.925Z,1007.98
2019-03-31T06:17:55.904Z,1007.98
2019-03-31T06:18:55.999Z,1007.97
2019-03-31T06:19:55.892Z,1007.98
2019-03-31T06:20:55.910Z,1007.99
2019-03-31T06:21:55.875Z,1008.00
2019-03-31T06:22:55.875Z,1008.00
2019-03-31T06:23:55.885Z,1008.04
2019-03-31T06:24:55.873Z,1008.03
2019-03-31T06:25:55.883Z,1008.06
2019-03-31T06:26:55.862Z,1008.06
2019-03-31T06:27:55.854Z,1008.05
2019-03-31T06:28:55.827Z,1008.08
2019-03-31T06:29:55.841Z,1008.09
2019-03-31T06:30:55.817Z,1008.10
2019-03-31T06:31:55.811Z,1008.10
2019-03-31T06:32:55.790Z,1008.05
2019-03-31T06:33:55.791Z,1008.10
2019-03-31T06:34:55.802Z,1008.09
2019-03-31T06:35:55.810Z,1008.09
2019-03-31T06:36:55.797Z,1008.13
2019-03-31T06:37:55.774Z,1008.09
2019-03-31T06:38:55.749Z,1008.07
2019-03-31T06:39:55.743Z,1008.09
2019-03-31T06:40:55.730Z,1008.06
2019-03-31T06:41:55.735Z,1008.06
2019-03-31T06:42:55.719Z,1008.04
2019-03-31T06:43:55.708Z,1008.06
2019-03-31T06:44:55.725Z,1008.09
2019-03-31T06:45:55.697Z,1008.09
2019-03-31T06:46:55.687Z,1008.06
2019-03-31T06:47:55.744Z,1008.10
2019-03-31T06:48:55.718Z,1008.10
2019-03-31T06:49:55.705Z,1008.11
2019-03-31T06:50:55.669Z,1008.14
2019-03-31T06:51:55.655Z,1008.16
2019-03-31T06:52:55.645Z,1008.15
2019-03-31T06:53:55.659Z,1008.18
2019-03-31T06:54:55.625Z,1008.21
2019-03-31T06:55:55.648Z,1008.19
2019-03-31T06:56:55.605Z,1008.24
2019-03-31T06:57:55.604Z,1008.22
2019-03-31T06:58:55.612Z,1008.21
2019-03-31T06:59:55.590Z,1008.22
2019-03-31T07:00:55.606Z,1008.20
2019-03-31T07:01:55.594Z,1008.21
2019-03-31T07:02:55.570Z,1008.23
2019-03-31T07:03:55.598Z,1008.17
2019-03-31T07:05:01.255Z,1008.22
2019-03-31T07:05:55.549Z,1008.19
2019-03-31T07:06:55.554Z,1008.22
2019-03-31T07:07:55.532Z,1008.18
2019-03-31T07:08:55.560Z,1008.17
2019-03-31T07:09:55.519Z,1008.21
2019-03-31T07:10:55.534Z,1008.19
2019-03-31T07:11:55.510Z,1008.18
2019-03-31T07:12:55.591Z,1008.21
2019-03-31T07:13:55.496Z,1008.21
2019-03-31T07:14:55.484Z,1008.18
2019-03-31T07:15:55.516Z,1008.20
2019-03-31T07:16:55.476Z,1008.20
2019-03-31T07:17:55.507Z,1008.23
2019-03-31T07:18:55.453Z,1008.24
2019-03-31T07:19:55.455Z,1008.21
2019-03-31T07:20:55.455Z,1008.22
2019-03-31T07:21:55.437Z,1008.23
2019-03-31T07:22:55.447Z,1008.27
2019-03-31T07:23:55.468Z,1008.23
2019-03-31T07:24:55.433Z,1008.23
2019-03-31T07:25:55.405Z,1008.26
2019-03-31T07:26:55.410Z,1008.23
2019-03-31T07:27:55.391Z,1008.22
2019-03-31T07:28:55.401Z,1008.20
2019-03-31T07:29:55.407Z,1008.23
2019-03-31T07:30:55.373Z,1008.23
2019-03-31T07:31:55.408Z,1008.22
2019-03-31T07:32:55.376Z,1008.21
2019-03-31T07:33:55.428Z,1008.24
2019-03-31T07:34:57.378Z,1008.25
2019-03-31T07:35:56.371Z,1008.23
2019-03-31T07:36:55.365Z,1008.21
2019-03-31T07:37:55.343Z,1008.18
2019-03-31T07:38:55.428Z,1008.20
2019-03-31T07:39:55.747Z,1008.25
2019-03-31T07:40:55.459Z,1008.21
2019-03-31T07:41:55.500Z,1008.22
2019-03-31T07:42:55.322Z,1008.26
2019-03-31T07:43:55.297Z,1008.24
2019-03-31T07:44:55.289Z,1008.25
2019-03-31T07:45:55.942Z,1008.26
2019-03-31T07:46:55.283Z,1008.26
2019-03-31T07:47:55.268Z,1008.24
2019-03-31T07:48:55.304Z,1008.30
2019-03-31T07:49:55.251Z,1008.26
2019-03-31T07:50:55.266Z,1008.22
2019-03-31T07:51:55.276Z,1008.22
2019-03-31T07:52:55.281Z,1008.24
2019-03-31T07:53:55.245Z,1008.28
2019-03-31T07:54:55.233Z,1008.26
2019-03-31T07:55:55.224Z,1008.27
2019-03-31T07:56:55.267Z,1008.29
2019-03-31T07:57:55.249Z,1008.31
2019-03-31T07:58:55.196Z,1008.28
2019-03-31T07:59:56.723Z,1008.31
2019-03-31T08:00:55.203Z,1008.29
2019-03-31T08:01:55.206Z,1008.29
2019-03-31T08:02:55.189Z,1008.30
2019-03-31T08:03:55.173Z,1008.34
2019-03-31T08:04:55.163Z,1008.29
2019-03-31T08:05:55.159Z,1008.27
2019-03-31T08:06:55.154Z,1008.26
2019-03-31T08:07:55.171Z,1008.30
2019-03-31T08:08:55.137Z,1008.28
2019-03-31T08:09:55.161Z,1008.28
2019-03-31T08:10:55.126Z,1008.25
2019-03-31T08:11:55.125Z,1008.24
2019-03-31T08:12:55.130Z,1008.28
2019-03-31T08:13:55.493Z,1008.26
2019-03-31T08:14:55.103Z,1008.28
2019-03-31T08:15:55.105Z,1008.33
2019-03-31T08:16:55.086Z,1008.28
2019-03-31T08:17:55.106Z,1008.33
2019-03-31T08:18:55.094Z,1008.32
2019-03-31T08:19:55.121Z,1008.33
2019-03-31T08:20:55.070Z,1008.33
2019-03-31T08:21:55.079Z,1008.35
2019-03-31T08:22:57.100Z,1008.31
2019-03-31T08:23:55.050Z,1008.35
2019-03-31T08:24:55.061Z,1008.34
2019-03-31T08:25:55.059Z,1008.33
2019-03-31T08:26:55.039Z,1008.31
2019-03-31T08:27:55.030Z,1008.33
2019-03-31T08:28:58.425Z,1008.32
2019-03-31T08:30:00.571Z,1008.31
2019-03-31T08:30:55.014Z,1008.34
2019-03-31T08:31:55.008Z,1008.31
2019-03-31T08:32:55.033Z,1008.32
2019-03-31T08:34:03.661Z,1008.37
2019-03-31T08:35:59.729Z,1008.32
2019-03-31T08:37:08.463Z,1008.30
2019-03-31T08:39:04.163Z,1008.33
2019-03-31T08:40:04.111Z,1008.32
2019-03-31T08:41:04.187Z,1008.31
2019-03-31T08:42:06.067Z,1008.33
2019-03-31T08:43:04.144Z,1008.32
2019-03-31T08:44:04.115Z,1008.33
2019-03-31T08:45:04.101Z,1008.24
2019-03-31T08:46:04.114Z,1008.27
2019-03-31T08:47:04.081Z,1008.29
2019-03-31T08:48:04.061Z,1008.23
2019-03-31T08:49:04.092Z,1008.26
2019-03-31T08:50:04.057Z,1008.25
2019-03-31T08:51:04.070Z,1008.26
2019-03-31T08:52:04.052Z,1008.28
2019-03-31T08:53:04.052Z,1008.31
2019-03-31T08:54:04.056Z,1008.23
2019-03-31T08:55:04.032Z,1008.23
2019-03-31T08:56:04.040Z,1008.26
2019-03-31T08:57:04.015Z,1008.22
2019-03-31T08:58:04.015Z,1008.23
2019-03-31T08:59:04.011Z,1008.22
2019-03-31T09:00:04.005Z,1008.26
2019-03-31T09:01:04.011Z,1008.24
2019-03-31T09:02:04.017Z,1008.23
2019-03-31T09:03:04.015Z,1008.23
2019-03-31T09:04:04.065Z,1008.22
2019-03-31T09:05:04.043Z,1008.23
2019-03-31T09:06:04.006Z,1008.26
2019-03-31T09:07:03.978Z,1008.24
2019-03-31T09:08:03.969Z,1008.21
2019-03-31T09:09:03.998Z,1008.26
2019-03-31T09:10:03.993Z,1008.24
2019-03-31T09:11:04.016Z,1008.24
2019-03-31T09:12:03.965Z,1008.20
2019-03-31T09:13:04.043Z,1008.22
2019-03-31T09:14:03.939Z,1008.23
2019-03-31T09:15:04.768Z,1008.21
2019-03-31T09:16:03.934Z,1008.20
2019-03-31T09:17:04.023Z,1008.22
2019-03-31T09:18:04.034Z,1008.22
2019-03-31T09:19:03.967Z,1008.25
2019-03-31T09:20:03.966Z,1008.21
2019-03-31T09:21:04.200Z,1008.19
2019-03-31T09:22:04.000Z,1008.23
2019-03-31T09:23:03.978Z,1008.19
2019-03-31T09:24:03.911Z,1008.16
2019-03-31T09:25:03.982Z,1008.18
2019-03-31T09:26:03.946Z,1008.20
2019-03-31T09:27:03.941Z,1008.20
2019-03-31T09:28:03.929Z,1008.15
2019-03-31T09:29:03.903Z,1008.16
2019-03-31T09:30:03.907Z,1008.21
2019-03-31T09:31:03.921Z,1008.13
2019-03-31T09:32:03.896Z,1008.16
2019-03-31T09:33:03.897Z,1008.12
2019-03-31T09:34:03.916Z,1008.15
2019-03-31T09:35:03.872Z,1008.10
2019-03-31T09:36:15.596Z,1008.06
2019-03-31T09:37:03.866Z,1008.08
2019-03-31T09:38:03.858Z,1008.05
2019-03-31T09:39:03.860Z,1008.06
2019-03-31T09:40:03.865Z,1008.03
2019-03-31T09:41:03.879Z,1008.04
2019-03-31T09:42:03.861Z,1008.02
2019-03-31T09:43:03.890Z,1008.06
2019-03-31T09:44:03.872Z,1008.07
2019-03-31T09:45:03.847Z,1008.06
2019-03-31T09:46:04.385Z,1008.05
2019-03-31T09:47:03.893Z,1008.04
2019-03-31T09:48:03.841Z,1008.01
2019-03-31T09:49:03.829Z,1008.05
2019-03-31T09:50:03.825Z,1008.03
2019-03-31T09:51:03.829Z,1008.01
2019-03-31T09:52:03.821Z,1007.98
2019-03-31T09:53:03.838Z,1007.96
2019-03-31T09:54:03.827Z,1007.96
2019-03-31T09:55:03.836Z,1008.02
2019-03-31T09:56:03.813Z,1008.01
2019-03-31T09:57:03.811Z,1008.00
2019-03-31T09:58:03.820Z,1007.98
2019-03-31T09:59:03.800Z,1007.97
2019-03-31T10:00:03.810Z,1007.96
2019-03-31T10:01:03.797Z,1007.98
2019-03-31T10:02:03.801Z,1007.96
2019-03-31T10:03:03.797Z,1007.97
2019-03-31T10:04:03.859Z,1007.94
2019-03-31T10:05:03.812Z,1007.94
2019-03-31T10:06:10.496Z,1007.92
2019-03-31T10:07:03.777Z,1007.94
2019-03-31T10:08:03.777Z,1007.89
2019-03-31T10:09:03.790Z,1007.88
2019-03-31T10:10:03.775Z,1007.82
2019-03-31T10:11:03.850Z,1007.81
2019-03-31T10:12:03.760Z,1007.78
2019-03-31T10:13:03.767Z,1007.78
2019-03-31T10:14:03.776Z,1007.78
2019-03-31T10:15:03.762Z,1007.75
2019-03-31T10:16:03.787Z,1007.77
2019-03-31T10:17:03.779Z,1007.76
2019-03-31T10:18:03.796Z,1007.77
2019-03-31T10:19:03.759Z,1007.75
2019-03-31T10:20:03.741Z,1007.74
2019-03-31T10:21:03.748Z,1007.72
2019-03-31T10:22:03.739Z,1007.70
2019-03-31T10:23:03.754Z,1007.79
2019-03-31T10:24:03.745Z,1007.71
2019-03-31T10:25:03.764Z,1007.75
2019-03-31T10:26:03.737Z,1007.72
2019-03-31T10:27:03.741Z,1007.72
2019-03-31T10:28:03.938Z,1007.67
2019-03-31T10:29:03.731Z,1007.72
2019-03-31T10:30:03.732Z,1007.74
2019-03-31T10:31:03.781Z,1007.75
2019-03-31T10:32:03.725Z,1007.75
2019-03-31T10:33:03.736Z,1007.70
2019-03-31T10:34:12.417Z,1007.72
2019-03-31T10:36:08.322Z,1007.66
2019-03-31T10:37:08.288Z,1007.64
2019-03-31T10:38:08.195Z,1007.65
2019-03-31T10:39:08.198Z,1007.58
2019-03-31T10:40:08.435Z,1007.69
2019-03-31T10:41:08.205Z,1007.63
2019-03-31T10:42:08.197Z,1007.60
2019-03-31T10:43:08.224Z,1007.62
2019-03-31T10:44:08.185Z,1007.58
2019-03-31T10:45:08.183Z,1007.53
2019-03-31T10:46:08.190Z,1007.56
2019-03-31T10:47:08.206Z,1007.55
2019-03-31T10:48:19.808Z,1007.56
2019-03-31T10:49:08.201Z,1007.51
2019-03-31T10:50:08.190Z,1007.51
2019-03-31T10:51:08.330Z,1007.53
2019-03-31T10:52:08.190Z,1007.51
2019-03-31T10:53:08.195Z,1007.46
2019-03-31T10:54:08.170Z,1007.50
2019-03-31T10:55:08.171Z,1007.57
2019-03-31T10:56:08.174Z,1007.50
2019-03-31T10:57:08.194Z,1007.53
2019-03-31T10:58:08.186Z,1007.45
2019-03-31T10:59:08.170Z,1007.46
2019-03-31T11:00:08.184Z,1007.46
2019-03-31T11:01:08.160Z,1007.52
2019-03-31T11:02:08.159Z,1007.47
2019-03-31T11:03:08.170Z,1007.49
2019-03-31T11:04:08.172Z,1007.44
2019-03-31T11:05:08.159Z,1007.44
2019-03-31T11:06:08.164Z,1007.40
2019-03-31T11:07:08.159Z,1007.45
2019-03-31T11:08:08.151Z,1007.43
2019-03-31T11:09:08.167Z,1007.43
2019-03-31T11:10:08.160Z,1007.45
2019-03-31T11:11:08.151Z,1007.40
2019-03-31T11:12:08.169Z,1007.45
2019-03-31T11:13:08.167Z,1007.47
2019-03-31T11:14:08.184Z,1007.39
2019-03-31T11:15:08.300Z,1007.41
2019-03-31T11:16:08.142Z,1007.37
2019-03-31T11:17:08.177Z,1007.47
2019-03-31T11:18:08.179Z,1007.39
2019-03-31T11:19:08.178Z,1007.33
2019-03-31T11:20:08.175Z,1007.30
2019-03-31T11:21:08.147Z,1007.37
2019-03-31T11:22:08.139Z,1007.42
2019-03-31T11:23:08.147Z,1007.41
2019-03-31T11:24:08.165Z,1007.46
2019-03-31T11:25:20.198Z,1007.38
2019-03-31T11:26:08.164Z,1007.34
2019-03-31T11:27:08.140Z,1007.30
2019-03-31T11:28:08.158Z,1007.40
2019-03-31T11:29:08.152Z,1007.35
2019-03-31T11:30:08.159Z,1007.41
2019-03-31T11:31:08.201Z,1007.31
2019-03-31T11:32:08.158Z,1007.38
2019-03-31T11:33:08.169Z,1007.33
2019-03-31T11:34:08.136Z,1007.37
2019-03-31T11:35:08.175Z,1007.37
2019-03-31T11:36:08.157Z,1007.31
2019-03-31T11:37:13.730Z,1007.29
2019-03-31T11:38:08.135Z,1007.25
2019-03-31T11:39:08.127Z,1007.23
2019-03-31T11:40:08.135Z,1007.26
2019-03-31T11:41:08.221Z,1007.33
2019-03-31T11:42:08.149Z,1007.27
2019-03-31T11:43:08.141Z,1007.20
2019-03-31T11:44:08.163Z,1007.21
2019-03-31T11:45:08.132Z,1007.19
2019-03-31T11:46:08.129Z,1007.20
2019-03-31T11:47:08.133Z,1007.23
2019-03-31T11:48:08.120Z,1007.20
2019-03-31T11:49:08.123Z,1007.17
2019-03-31T11:50:08.158Z,1007.22
2019-03-31T11:51:08.134Z,1007.12
2019-03-31T11:52:08.124Z,1007.15
2019-03-31T11:53:08.130Z,1007.16
2019-03-31T11:54:08.122Z,1007.12
2019-03-31T11:55:08.125Z,1007.10
2019-03-31T11:56:08.129Z,1007.11
2019-03-31T11:57:08.126Z,1007.08
2019-03-31T11:58:08.123Z,1007.03
2019-03-31T11:59:08.125Z,1007.04
2019-03-31T12:00:08.125Z,1007.06
2019-03-31T12:01:08.128Z,1007.07
2019-03-31T12:02:08.458Z,1007.04
2019-03-31T12:03:08.130Z,1007.05
2019-03-31T12:04:08.134Z,1007.04
2019-03-31T12:05:08.128Z,1006.99
2019-03-31T12:06:11.139Z,1007.04
2019-03-31T12:07:08.123Z,1007.05
2019-03-31T12:08:08.128Z,1006.96
2019-03-31T12:09:08.129Z,1007.00
2019-03-31T12:10:08.146Z,1007.01
2019-03-31T12:11:08.137Z,1006.92
2019-03-31T12:12:08.134Z,1006.96
2019-03-31T12:13:08.130Z,1006.87
2019-03-31T12:14:08.129Z,1006.89
2019-03-31T12:15:08.146Z,1006.94
2019-03-31T12:16:08.133Z,1006.95
2019-03-31T12:17:08.134Z,1006.89
2019-03-31T12:18:08.131Z,1006.87
2019-03-31T12:19:08.123Z,1006.83
2019-03-31T12:20:08.151Z,1006.91
2019-03-31T12:21:08.137Z,1006.85
2019-03-31T12:22:08.171Z,1006.90
2019-03-31T12:23:08.181Z,1006.84
2019-03-31T12:24:08.141Z,1006.84
2019-03-31T12:25:08.158Z,1006.90
2019-03-31T12:26:08.245Z,1006.89